Time;durP1;ratioP1;P1;durP2;ratioP2;P2;SDS_P1;SDS_P2;PMS_P1;PMS_P2;Temp;Humidity;BMP_temperature;BMP_pressure;BME280_temperature;BME280_humidity;BME280_pressure;Samples;Min_cycle;Max_cycle;Signal;HPM_P1;HPM_P2
2022/01/25 00:29:35;;;;;;;21.77;16.33;;;;;;;4.09;60.31;101592.69;10487403;28;20048;-69
2022/01/25 00:34:38;;;;;;;20.13;16.73;;;;;;;4.13;59.92;101596.97;10482147;28;20572;-70
2022/01/25 00:39:41;;;;;;;18.58;15.13;;;;;;;4.27;60.06;101598.56;10484832;28;20479;-70
2022/01/25 00:44:47;;;;;;;25.85;17.85;;;;;;;4.42;59.81;101598.47;10470304;28;20053;-70
2022/01/25 00:49:52;;;;;;;20.40;17.52;;;;;;;4.48;59.60;101588.06;10491626;28;20051;-70
2022/01/25 00:54:58;;;;;;;22.02;19.00;;;;;;;4.42;59.55;101592.41;10471194;28;20048;-70
2022/01/25 00:59:59;;;;;;;16.98;15.20;;;;;;;4.35;60.20;101586.41;10471966;28;20049;-69
2022/01/25 01:05:02;;;;;;;20.35;16.05;;;;;;;4.37;59.94;101589.84;10473080;28;20172;-70
2022/01/25 01:10:04;;;;;;;16.48;13.55;;;;;;;4.28;59.79;101584.78;10475786;28;21773;-70
2022/01/25 01:52:07;;;;;;;18.42;15.50;;;;;;;3.66;60.96;101590.31;10469685;28;20137;-69
2022/01/25 01:57:10;;;;;;;21.20;17.10;;;;;;;3.91;60.59;101585.91;10466689;28;20063;-70
2022/01/25 02:02:12;;;;;;;20.10;17.98;;;;;;;4.04;60.43;101578.91;10469300;28;20135;-69
2022/01/25 02:07:14;;;;;;;24.70;20.00;;;;;;;4.11;60.22;101581.44;10475923;28;20044;-70
2022/01/25 02:12:16;;;;;;;19.17;16.60;;;;;;;4.06;60.32;101577.16;10467885;28;20435;-70
2022/01/25 02:22:34;;;;;;;22.88;16.85;;;;;;;4.09;60.44;101578.00;10468855;28;20051;-69
2022/01/25 02:27:36;;;;;;;19.45;16.60;;;;;;;4.06;60.78;101569.41;10467154;28;20060;-70
2022/01/25 02:32:38;;;;;;;19.08;16.38;;;;;;;4.19;60.81;101564.13;10467800;28;20135;-69
2022/01/25 02:37:40;;;;;;;19.88;15.95;;;;;;;4.24;59.98;101558.91;10468357;28;20044;-70
2022/01/25 02:42:42;;;;;;;18.48;14.68;;;;;;;3.98;60.36;101559.13;10467696;28;20549;-70
2022/01/25 02:53:04;;;;;;;19.57;15.67;;;;;;;3.92;61.01;101553.97;10467427;28;20072;-70
2022/01/25 02:58:08;;;;;;;18.83;15.35;;;;;;;3.92;60.42;101558.28;10467969;28;20044;-70
2022/01/25 03:03:10;;;;;;;23.55;19.52;;;;;;;3.96;60.61;101555.69;10471555;28;20652;-69
2022/01/25 03:08:14;;;;;;;21.20;17.27;;;;;;;3.93;60.51;101553.09;10479331;28;21024;-70
2022/01/25 03:13:20;;;;;;;28.83;24.40;;;;;;;4.01;60.66;101553.91;10483103;28;20135;-69
2022/01/25 03:18:39;;;;;;;23.67;20.00;;;;;;;4.03;60.62;101551.31;10483393;28;20088;-69
2022/01/25 03:23:42;;;;;;;26.30;20.75;;;;;;;4.03;60.49;101554.75;10484032;28;20054;-69
2022/01/25 03:28:44;;;;;;;23.80;17.83;;;;;;;4.02;60.25;101549.59;10480506;28;20056;-70
2022/01/25 03:33:46;;;;;;;22.63;18.27;;;;;;;3.71;60.68;101544.59;10482206;28;20407;-69
2022/01/25 03:38:48;;;;;;;23.27;19.58;;;;;;;3.73;60.99;101545.44;10480736;28;20200;-69
2022/01/25 03:43:54;;;;;;;23.25;18.92;;;;;;;3.85;60.73;101536.75;10481529;28;20163;-70
2022/01/25 03:54:17;;;;;;;21.55;16.65;;;;;;;3.44;61.57;101538.69;10489568;28;20135;-69
2022/01/25 03:59:19;;;;;;;20.35;16.50;;;;;;;3.51;61.55;101537.81;10481233;28;20132;-69
2022/01/25 04:04:24;;;;;;;20.55;17.95;;;;;;;3.60;61.51;101540.38;10477641;28;20124;-70
2022/01/25 04:09:28;;;;;;;20.75;16.42;;;;;;;3.63;61.52;101538.59;10474534;28;20083;-70
2022/01/25 04:14:30;;;;;;;20.35;16.55;;;;;;;3.67;61.37;101536.84;10474326;28;20052;-69
2022/01/25 04:19:39;;;;;;;23.67;17.15;;;;;;;3.68;61.23;101534.25;10473732;28;20105;-69
2022/01/25 04:25:05;;;;;;;21.73;17.85;;;;;;;3.72;61.33;101535.94;10472322;28;20053;-69
2022/01/25 04:30:07;;;;;;;25.80;18.67;;;;;;;3.67;61.58;101542.03;10473287;28;20135;-70
2022/01/25 04:56:19;;;;;;;27.25;20.02;;;;;;;3.60;61.55;101530.84;10472189;28;20059;-69
2022/01/25 05:01:21;;;;;;;23.70;19.17;;;;;;;3.44;61.77;101533.53;10471730;28;20044;-69
2022/01/25 05:06:25;;;;;;;47.60;33.35;;;;;;;3.51;61.90;101533.50;10471740;28;20151;-69
2022/01/25 05:11:31;;;;;;;25.85;22.17;;;;;;;3.37;62.09;101534.44;10472086;28;20123;-69
2022/01/25 05:16:47;;;;;;;22.48;17.42;;;;;;;3.33;62.27;101532.75;10470161;28;20040;-70
2022/01/25 05:22:05;;;;;;;22.90;18.48;;;;;;;3.50;61.95;101534.34;10475452;28;20051;-68
2022/01/25 05:27:10;;;;;;;24.45;18.80;;;;;;;3.53;61.71;101534.34;10469966;28;20051;-68
2022/01/25 05:32:12;;;;;;;22.50;18.27;;;;;;;3.53;61.81;101541.25;10470290;28;20049;-68
2022/01/25 05:37:14;;;;;;;24.90;18.48;;;;;;;3.12;62.17;101550.91;10477093;28;20048;-68
2022/01/25 05:42:44;;;;;;;28.38;20.23;;;;;;;2.88;62.61;101539.81;10489948;28;20063;-68
2022/01/25 05:47:46;;;;;;;28.88;22.77;;;;;;;2.85;62.98;101544.97;10470546;28;20052;-69
2022/01/25 05:52:48;;;;;;;23.73;18.10;;;;;;;2.76;62.92;101542.44;10481482;28;20416;-68
2022/01/25 05:57:49;;;;;;;22.90;18.30;;;;;;;2.74;63.32;101546.75;10476747;28;20543;-69
2022/01/25 06:02:54;;;;;;;26.00;18.85;;;;;;;3.01;62.97;101536.31;10470717;28;20075;-69
2022/01/25 06:07:56;;;;;;;23.63;19.35;;;;;;;3.12;62.52;101525.94;10468438;28;20113;-68
2022/01/25 06:12:58;;;;;;;26.00;20.85;;;;;;;3.18;62.70;101523.31;10469825;28;20056;-68
2022/01/25 06:18:00;;;;;;;25.55;21.40;;;;;;;3.12;62.55;101532.81;10468771;28;20053;-68
2022/01/25 06:23:02;;;;;;;30.10;22.27;;;;;;;3.23;62.37;101524.19;10468331;28;20070;-69
2022/01/25 06:28:04;;;;;;;28.38;21.77;;;;;;;2.97;62.70;101511.34;10469385;28;20067;-68
2022/01/25 06:33:08;;;;;;;28.95;21.88;;;;;;;3.10;63.03;101511.28;10469118;28;20044;-69
2022/01/25 06:38:09;;;;;;;27.20;19.88;;;;;;;3.14;62.56;101510.41;10468239;28;20710;-69
2022/01/25 06:43:11;;;;;;;27.35;22.42;;;;;;;3.17;62.52;101507.81;10469191;28;20048;-69
2022/01/25 06:48:13;;;;;;;28.48;23.13;;;;;;;3.15;62.57;101505.25;10467785;28;20171;-68
2022/01/25 06:53:14;;;;;;;31.42;24.83;;;;;;;3.14;62.71;101511.28;10477344;28;20143;-69
2022/01/25 06:58:16;;;;;;;32.85;23.77;;;;;;;3.10;62.99;101511.28;10469013;28;20048;-68
2022/01/25 07:03:18;;;;;;;32.15;24.60;;;;;;;3.19;62.78;101513.84;10468030;28;20596;-68
2022/01/25 07:08:20;;;;;;;29.02;22.08;;;;;;;3.00;62.99;101510.47;10467824;28;20044;-68
2022/01/25 07:13:27;;;;;;;28.10;22.00;;;;;;;3.00;63.13;101519.09;10468222;28;20044;-68
2022/01/25 07:18:28;;;;;;;32.10;24.13;;;;;;;2.94;63.35;101526.88;10448990;28;20496;-68
2022/01/25 07:23:30;;;;;;;28.60;23.00;;;;;;;2.92;63.40;101533.78;10476507;28;20133;-69
2022/01/25 07:28:33;;;;;;;34.75;25.77;;;;;;;2.92;63.17;101544.09;10471844;28;20139;-68
2022/01/25 07:33:35;;;;;;;29.90;24.33;;;;;;;2.97;63.17;101539.75;10466006;28;20835;-69
2022/01/25 07:38:51;;;;;;;28.58;22.25;;;;;;;3.01;63.30;101544.06;10488495;28;20512;-68
2022/01/25 07:43:54;;;;;;;30.83;23.60;;;;;;;3.03;63.21;101547.50;10479309;28;20102;-69
2022/01/25 07:49:07;;;;;;;28.58;23.05;;;;;;;3.05;62.90;101556.09;10468031;28;20041;-68
2022/01/25 07:54:10;;;;;;;27.63;21.80;;;;;;;3.13;62.84;101558.66;10471704;28;20052;-68
2022/01/25 07:59:12;;;;;;;34.35;25.02;;;;;;;3.14;62.99;101555.22;10493333;28;20465;-68
2022/01/25 08:04:15;;;;;;;38.78;27.65;;;;;;;3.05;63.24;101576.78;10480728;28;20090;-68
2022/01/25 08:09:34;;;;;;;35.13;26.52;;;;;;;3.01;63.18;101571.63;10476993;28;20481;-68
2022/01/25 08:14:45;;;;;;;41.15;29.58;;;;;;;2.90;63.48;101568.22;10479545;28;20048;-68
2022/01/25 08:19:47;;;;;;;33.65;25.33;;;;;;;3.00;63.50;101562.16;10473559;28;20044;-68
2022/01/25 08:25:06;;;;;;;34.53;27.35;;;;;;;3.13;63.00;101563.81;10454627;28;20052;-68
2022/01/25 08:30:11;;;;;;;33.78;24.60;;;;;;;3.13;63.21;101557.81;10487114;28;20448;-68
2022/01/25 08:35:27;;;;;;;33.35;23.83;;;;;;;3.12;63.04;101562.13;10470972;28;20424;-68
2022/01/25 08:40:43;;;;;;;32.97;22.52;;;;;;;3.18;63.05;101556.06;10471527;28;20052;-68
2022/01/25 08:46:02;;;;;;;32.17;23.65;;;;;;;3.16;63.08;101548.31;10431707;28;20055;-68
2022/01/25 08:51:08;;;;;;;32.63;23.52;;;;;;;3.21;63.00;101543.13;10464086;28;20052;-68
2022/01/25 08:56:29;;;;;;;33.80;24.00;;;;;;;3.16;62.91;101548.31;10402092;28;20135;-68
2022/01/25 09:01:44;;;;;;;29.77;24.48;;;;;;;3.22;62.91;101547.44;10365775;28;20608;-67
2022/01/25 09:06:47;;;;;;;33.45;26.15;;;;;;;3.31;62.59;101553.44;10397288;28;20093;-68
2022/01/25 09:11:49;;;;;;;36.15;25.08;;;;;;;3.30;62.80;101556.88;10381997;28;20055;-68
2022/01/25 09:16:51;;;;;;;32.05;23.58;;;;;;;3.20;62.80;101554.31;10382421;28;20480;-68
2022/01/25 09:21:53;;;;;;;35.33;24.98;;;;;;;3.23;62.95;101575.00;10382182;28;20052;-68
2022/01/25 09:26:55;;;;;;;32.75;24.58;;;;;;;3.36;62.93;101574.06;10440437;28;20566;-68
2022/01/25 09:31:57;;;;;;;36.60;24.52;;;;;;;3.36;62.61;101571.50;10469837;28;20102;-68
2022/01/25 09:36:59;;;;;;;41.20;27.63;;;;;;;3.33;62.70;101571.53;10471112;28;20048;-69
2022/01/25 09:42:03;;;;;;;32.80;24.63;;;;;;;3.31;62.73;101571.53;10465545;28;20144;-69
2022/01/25 09:47:06;;;;;;;35.20;23.67;;;;;;;3.31;62.49;101579.28;10466661;28;20048;-68
2022/01/25 09:52:09;;;;;;;35.25;23.25;;;;;;;3.31;62.84;101597.41;10466308;28;20051;-68
2022/01/25 09:57:13;;;;;;;38.15;26.52;;;;;;;3.34;62.73;101591.31;10477483;28;20563;-68
2022/01/25 10:02:37;;;;;;;34.10;25.63;;;;;;;3.43;62.41;101589.59;10467889;28;20135;-67
2022/01/25 10:07:39;;;;;;;33.60;23.90;;;;;;;3.47;62.11;101599.06;10469390;28;20397;-67
2022/01/25 10:12:41;;;;;;;37.78;25.42;;;;;;;3.43;62.17;101599.06;10467759;28;20157;-67
2022/01/25 10:17:44;;;;;;;41.95;27.40;;;;;;;3.40;62.42;101601.66;10481247;28;20135;-67
2022/01/25 10:22:47;;;;;;;38.33;27.13;;;;;;;3.49;62.06;101597.31;10468831;28;20455;-66
2022/01/25 10:27:59;;;;;;;33.80;24.73;;;;;;;3.56;62.19;101599.00;10479883;28;20512;-67
2022/01/25 10:33:01;;;;;;;36.40;26.02;;;;;;;3.57;61.94;101607.63;10468092;28;20536;-67
2022/01/25 10:38:19;;;;;;;33.97;24.52;;;;;;;3.53;62.10;101593.84;10492542;28;20131;-67
2022/01/25 10:43:23;;;;;;;35.78;24.08;;;;;;;3.62;62.29;101600.72;10476965;28;20040;-68
2022/01/25 10:48:29;;;;;;;34.33;23.65;;;;;;;5.04;60.38;101586.66;10465784;28;20051;-67
2022/01/25 10:53:31;;;;;;;33.53;22.60;;;;;;;4.22;60.89;101592.59;10468410;28;20966;-68
2022/01/25 10:58:38;;;;;;;34.38;24.40;;;;;;;3.86;61.43;101596.25;10498917;28;20094;-68
2022/01/25 11:03:42;;;;;;;39.35;25.70;;;;;;;3.76;61.58;101598.91;10467834;28;20959;-68
2022/01/25 11:08:47;;;;;;;42.90;26.42;;;;;;;3.68;61.81;101595.50;10465775;28;20048;-68
2022/01/25 11:13:50;;;;;;;38.80;25.55;;;;;;;3.63;61.97;101592.06;10467490;28;20048;-68
2022/01/25 11:18:52;;;;;;;41.15;25.90;;;;;;;3.64;61.83;101583.44;10468214;28;20267;-67
2022/01/25 11:23:55;;;;;;;41.42;26.48;;;;;;;3.59;62.04;101580.88;10480115;28;20518;-68
2022/01/25 11:28:57;;;;;;;37.45;24.30;;;;;;;3.59;62.08;101574.84;10472008;28;20060;-68
2022/01/25 11:33:59;;;;;;;38.17;25.17;;;;;;;3.58;61.94;101567.94;10509105;28;20449;-68
2022/01/25 11:39:01;;;;;;;37.83;25.05;;;;;;;3.63;62.05;101568.78;10484921;28;20917;-68
2022/01/25 11:44:10;;;;;;;38.58;25.20;;;;;;;3.55;61.96;101557.63;10485650;28;20052;-68
2022/01/25 11:49:17;;;;;;;35.80;24.92;;;;;;;3.45;62.27;101553.38;10483890;28;20049;-68
2022/01/25 11:54:19;;;;;;;38.33;26.70;;;;;;;3.50;62.13;101554.19;10472687;28;20447;-68
2022/01/25 11:59:33;;;;;;;38.17;25.88;;;;;;;3.65;62.16;101548.94;10475938;28;20484;-68
2022/01/25 12:04:43;;;;;;;40.05;27.13;;;;;;;3.60;61.64;101550.72;10473645;28;20518;-68
2022/01/25 12:09:50;;;;;;;40.83;27.73;;;;;;;3.77;61.80;101548.84;10511630;28;20129;-68
2022/01/25 12:14:55;;;;;;;40.22;27.45;;;;;;;3.72;61.30;101548.88;10485767;28;20143;-68
2022/01/25 12:19:58;;;;;;;41.20;27.00;;;;;;;3.50;61.52;101538.66;10471795;28;20045;-68
2022/01/25 12:25:17;;;;;;;38.67;25.88;;;;;;;3.53;62.29;101541.25;10471683;28;20044;-68
2022/01/25 12:30:30;;;;;;;38.40;25.30;;;;;;;3.55;61.54;101537.78;10495877;28;20463;-67
2022/01/25 12:35:40;;;;;;;36.17;25.48;;;;;;;3.49;61.91;101542.13;10473174;28;20059;-67
2022/01/25 12:40:53;;;;;;;36.45;26.20;;;;;;;3.37;62.26;101535.31;10473381;28;20141;-67
2022/01/25 12:46:06;;;;;;;37.22;25.60;;;;;;;3.56;61.97;101528.28;10470996;28;20493;-67
2022/01/25 12:51:11;;;;;;;36.22;24.83;;;;;;;3.65;61.81;101523.06;10471718;28;20044;-67
2022/01/25 12:56:20;;;;;;;34.03;25.15;;;;;;;3.61;61.74;101518.78;10490469;28;20044;-67
2022/01/25 13:01:24;;;;;;;40.83;25.88;;;;;;;3.55;61.85;101513.66;10472601;28;20057;-67
2022/01/25 13:06:32;;;;;;;36.35;24.95;;;;;;;3.47;62.28;101518.00;10471717;28;20371;-67
2022/01/25 13:16:59;;;;;;;35.75;23.45;;;;;;;3.55;62.34;101513.66;10469773;28;20064;-67
2022/01/25 13:22:07;;;;;;;36.13;25.27;;;;;;;3.59;62.14;101510.16;10475631;28;20106;-67
2022/01/25 13:27:13;;;;;;;37.67;24.42;;;;;;;3.70;61.76;101505.81;10469273;28;20292;-67
2022/01/25 13:32:25;;;;;;;39.83;25.73;;;;;;;3.82;61.42;101506.53;10469929;28;20481;-67
2022/01/25 13:37:27;;;;;;;43.97;28.02;;;;;;;3.55;61.74;101503.31;10470728;28;20048;-67
2022/01/25 13:42:40;;;;;;;42.50;27.10;;;;;;;3.70;61.86;101503.22;10493336;28;20514;-67
2022/01/25 13:47:54;;;;;;;41.55;27.58;;;;;;;3.51;61.92;101505.06;10481769;28;20496;-66
2022/01/25 13:52:56;;;;;;;45.28;27.92;;;;;;;3.46;62.47;101511.97;10468887;28;20590;-66
2022/01/25 13:57:58;;;;;;;46.13;29.20;;;;;;;3.50;62.24;101498.16;10473750;28;20060;-67
2022/01/25 14:03:00;;;;;;;38.65;26.77;;;;;;;3.49;62.32;101496.44;10468791;28;20512;-67
2022/01/25 14:08:02;;;;;;;43.83;27.50;;;;;;;3.58;62.14;101498.09;10477963;28;20048;-67
2022/01/25 14:23:45;;;;;;;43.72;27.75;;;;;;;3.71;61.89;101487.66;10495753;28;20149;-67
2022/01/25 14:29:04;;;;;;;40.05;25.33;;;;;;;3.68;61.98;101492.00;10472243;28;20485;-67
2022/01/25 14:34:10;;;;;;;36.85;25.17;;;;;;;3.71;62.25;101497.16;10468097;28;20053;-67
2022/01/25 14:39:13;;;;;;;41.78;25.63;;;;;;;3.70;62.02;101482.50;10494139;28;20140;-67
2022/01/25 14:44:22;;;;;;;42.03;24.92;;;;;;;3.51;62.34;101486.09;10475435;28;20127;-67
2022/01/25 14:49:28;;;;;;;41.67;26.40;;;;;;;3.49;62.63;101499.03;10471660;28;20052;-67
2022/01/25 14:54:36;;;;;;;46.58;26.25;;;;;;;3.54;62.50;101509.31;10468718;28;20123;-67
2022/01/25 14:59:48;;;;;;;42.47;27.23;;;;;;;3.51;62.55;101507.63;10490761;28;20055;-67
2022/01/25 15:04:54;;;;;;;47.70;26.90;;;;;;;3.37;62.91;101512.03;10496602;28;20059;-67
2022/01/25 15:10:00;;;;;;;41.03;25.50;;;;;;;3.33;63.04;101510.34;10493751;28;20048;-66
2022/01/25 15:20:08;;;;;;;43.35;25.63;;;;;;;3.37;63.17;101498.25;10508488;28;20131;-67
2022/01/25 15:25:14;;;;;;;46.80;26.25;;;;;;;3.44;62.86;101511.13;10482932;28;20411;-66
2022/01/25 15:30:16;;;;;;;54.13;32.78;;;;;;;3.38;62.81;101512.88;10499850;28;20138;-67
2022/01/25 15:35:20;;;;;;;48.83;27.27;;;;;;;3.36;62.96;101518.06;10457668;28;20046;-67
2022/01/25 15:40:22;;;;;;;42.47;26.60;;;;;;;3.37;62.87;101508.59;10478467;28;20477;-67
2022/01/25 15:45:30;;;;;;;43.75;27.23;;;;;;;3.37;62.90;101513.75;10474351;28;20052;-66
2022/01/25 15:50:31;;;;;;;48.75;25.63;;;;;;;3.13;63.29;101509.53;10498324;28;20044;-67
2022/01/25 15:55:33;;;;;;;45.17;25.73;;;;;;;3.09;63.63;101509.59;10516407;28;20987;-67
2022/01/25 16:00:35;;;;;;;58.63;26.65;;;;;;;3.16;63.77;101511.25;10476776;28;20127;-67
2022/01/25 16:05:38;;;;;;;47.90;28.30;;;;;;;3.15;63.63;101512.16;10472456;28;20505;-67
2022/01/25 16:10:42;;;;;;;46.78;25.77;;;;;;;3.21;63.57;101507.81;10495879;28;20044;-67
2022/01/25 16:15:49;;;;;;;40.63;25.92;;;;;;;3.26;63.51;101500.88;10505461;28;20067;-67
2022/01/25 16:20:50;;;;;;;45.25;24.60;;;;;;;3.30;63.20;101507.75;10496399;28;20439;-67
2022/01/25 16:25:52;;;;;;;35.10;21.33;;;;;;;3.30;62.95;101509.47;10476180;28;20056;-67
2022/01/25 16:31:03;;;;;;;35.25;21.35;;;;;;;3.24;63.01;101509.50;10476896;28;20067;-67
2022/01/25 16:36:05;;;;;;;38.75;20.90;;;;;;;3.23;63.03;101510.38;10503812;28;20331;-67
2022/01/25 16:41:07;;;;;;;36.22;21.98;;;;;;;3.15;63.26;101505.25;10489046;28;20051;-67
2022/01/25 16:46:10;;;;;;;33.17;20.52;;;;;;;3.17;62.71;101508.69;10491725;28;20094;-67
2022/01/25 16:51:12;;;;;;;34.33;21.92;;;;;;;3.24;62.58;101514.66;10475882;28;20348;-67
2022/01/25 16:56:16;;;;;;;37.58;21.90;;;;;;;3.31;62.41;101512.06;10508171;28;20511;-67
2022/01/25 17:01:18;;;;;;;35.22;21.00;;;;;;;3.35;62.73;101505.16;10490233;28;20044;-68
2022/01/25 17:06:20;;;;;;;31.20;19.73;;;;;;;3.44;62.39;101505.06;10475213;28;20454;-67
2022/01/25 17:11:22;;;;;;;39.85;22.27;;;;;;;3.40;62.46;101500.78;10481769;28;20480;-67
2022/01/25 17:16:24;;;;;;;34.42;21.00;;;;;;;3.42;62.49;101504.22;10475033;28;20625;-67
2022/01/25 17:21:26;;;;;;;39.22;23.40;;;;;;;3.30;62.57;101510.34;10479840;28;20052;-67
2022/01/25 17:26:27;;;;;;;38.72;23.08;;;;;;;3.33;62.84;101512.91;10467444;28;20040;-67
2022/01/25 17:31:30;;;;;;;37.60;24.45;;;;;;;3.36;62.95;101496.50;10473740;28;20044;-67
2022/01/25 17:36:42;;;;;;;39.80;22.63;;;;;;;3.36;62.81;101492.19;10484201;28;20053;-67
2022/01/25 17:41:45;;;;;;;35.38;20.23;;;;;;;3.30;62.96;101484.47;10486670;28;20412;-67
2022/01/25 17:46:47;;;;;;;35.78;21.10;;;;;;;3.32;62.98;101487.91;10479762;28;20044;-67
2022/01/25 17:51:49;;;;;;;35.92;21.60;;;;;;;3.31;62.81;101495.69;10483959;28;20499;-67
2022/01/25 17:56:52;;;;;;;41.05;22.50;;;;;;;3.22;62.95;101506.94;10465124;28;20066;-67
2022/01/25 18:01:57;;;;;;;39.60;21.15;;;;;;;3.29;63.03;101494.84;10476176;28;20139;-67
2022/01/25 18:07:00;;;;;;;37.30;21.67;;;;;;;3.41;62.68;101489.59;10478225;28;20177;-68
2022/01/25 18:12:01;;;;;;;40.00;22.27;;;;;;;3.45;62.66;101484.41;10485914;28;20496;-67
2022/01/25 18:17:03;;;;;;;43.20;23.55;;;;;;;3.51;62.48;101484.38;10475513;28;20053;-67
2022/01/25 18:22:06;;;;;;;41.85;23.40;;;;;;;3.55;62.43;101477.44;10479425;28;20056;-67
2022/01/25 18:27:08;;;;;;;43.58;24.20;;;;;;;3.59;62.38;101477.41;10473182;28;20172;-67
2022/01/25 18:32:11;;;;;;;72.43;34.80;;;;;;;3.56;62.03;101476.53;10461932;28;20047;-67
2022/01/25 18:37:13;;;;;;;142.88;61.20;;;;;;;3.43;62.21;101487.84;10466300;28;20083;-67
2022/01/25 18:42:15;;;;;;;51.38;28.02;;;;;;;3.42;62.44;101488.72;10488756;28;20048;-67
2022/01/25 18:47:16;;;;;;;60.67;33.20;;;;;;;3.44;62.27;101481.81;10469313;28;20058;-67
2022/01/25 18:52:18;;;;;;;47.50;24.05;;;;;;;3.49;61.96;101485.22;10483707;28;20094;-67
2022/01/25 18:57:25;;;;;;;38.88;23.05;;;;;;;3.50;62.02;101476.59;10463439;28;20088;-67
2022/01/25 19:02:37;;;;;;;37.80;20.83;;;;;;;3.41;62.18;101477.53;10469423;28;20092;-68
2022/01/25 19:07:40;;;;;;;36.13;19.85;;;;;;;3.44;62.32;101481.81;10466865;28;20135;-67
2022/01/25 19:12:41;;;;;;;37.67;21.23;;;;;;;3.41;62.42;101479.25;10474070;28;20961;-67
2022/01/25 19:17:44;;;;;;;42.58;22.45;;;;;;;3.37;62.61;101472.38;10471212;28;20056;-67
2022/01/25 19:22:48;;;;;;;38.00;21.88;;;;;;;3.34;62.67;101475.84;10491794;28;20512;-67
2022/01/25 19:27:49;;;;;;;43.95;22.17;;;;;;;3.33;62.58;101474.13;10465265;28;20095;-67
2022/01/25 19:32:59;;;;;;;38.85;21.27;;;;;;;3.38;62.61;101481.84;10467543;28;20063;-67
2022/01/25 19:38:02;;;;;;;38.30;22.13;;;;;;;3.34;62.44;101485.31;10463209;28;20379;-67
2022/01/25 19:43:04;;;;;;;39.25;21.80;;;;;;;3.34;62.71;101486.19;10460954;28;20045;-67
2022/01/25 19:48:06;;;;;;;39.20;20.88;;;;;;;3.45;62.46;101484.41;10466165;28;20048;-67
2022/01/25 19:53:11;;;;;;;35.97;20.15;;;;;;;3.37;62.43;101482.72;10468811;28;20592;-67
2022/01/25 19:58:13;;;;;;;38.92;20.08;;;;;;;3.27;62.69;101478.47;10472073;28;20350;-67
2022/01/25 20:03:14;;;;;;;36.05;20.13;;;;;;;3.21;62.56;101488.84;10473060;28;20045;-67
2022/01/25 20:08:19;;;;;;;41.33;22.02;;;;;;;3.32;62.80;101499.97;10471434;28;20538;-67
2022/01/25 20:13:22;;;;;;;40.20;21.75;;;;;;;3.32;62.64;101499.97;10471175;28;20056;-67
2022/01/25 20:18:30;;;;;;;42.80;24.15;;;;;;;3.29;62.69;101493.13;10469356;28;20049;-67
2022/01/25 20:23:37;;;;;;;44.20;22.40;;;;;;;3.23;62.99;101502.63;10472766;28;20614;-67
2022/01/25 20:28:44;;;;;;;40.33;22.05;;;;;;;3.21;62.95;101500.06;10472330;28;20063;-67
2022/01/25 20:33:48;;;;;;;38.90;22.67;;;;;;;3.35;62.60;101494.81;10466151;28;20052;-67
2022/01/25 20:38:50;;;;;;;42.45;23.83;;;;;;;3.38;62.75;101497.34;10471809;28;20098;-67
2022/01/25 20:43:53;;;;;;;43.38;24.70;;;;;;;3.20;62.68;101487.97;10471051;28;20135;-67
2022/01/25 20:48:55;;;;;;;43.28;23.52;;;;;;;3.24;62.91;101497.44;10465316;28;20060;-67
2022/01/25 20:53:58;;;;;;;42.47;22.77;;;;;;;3.30;62.95;101496.53;10468838;28;20062;-67
2022/01/25 20:59:02;;;;;;;39.80;22.05;;;;;;;3.21;62.77;101499.19;10470356;28;20125;-67
2022/01/25 21:09:19;;;;;;;39.58;19.55;;;;;;;3.23;63.03;101495.75;10471635;28;20135;-67
2022/01/25 21:14:21;;;;;;;41.60;21.27;;;;;;;3.25;62.74;101500.88;10476896;28;20048;-67
2022/01/25 21:19:23;;;;;;;38.75;20.23;;;;;;;3.22;62.92;101491.41;10468797;28;20411;-67
2022/01/25 21:24:24;;;;;;;42.67;20.60;;;;;;;3.25;63.08;101490.53;10469889;28;20203;-67
2022/01/25 21:29:27;;;;;;;41.75;20.52;;;;;;;3.10;63.30;101488.88;10469662;28;20048;-67
2022/01/25 21:34:29;;;;;;;44.30;20.50;;;;;;;3.05;63.43;101470.81;10470232;28;20078;-67
2022/01/25 21:39:31;;;;;;;35.40;19.30;;;;;;;3.05;63.32;101467.38;10469560;28;20070;-67
2022/01/25 21:44:32;;;;;;;38.78;19.52;;;;;;;3.14;63.36;101467.34;10468356;28;20809;-67
2022/01/25 21:49:34;;;;;;;40.33;20.60;;;;;;;3.16;63.25;101463.00;10469006;28;20052;-67
2022/01/25 21:54:36;;;;;;;44.55;22.60;;;;;;;3.15;63.22;101471.66;10469370;28;20451;-68
2022/01/25 21:59:38;;;;;;;51.28;28.15;;;;;;;3.09;63.53;101475.97;10469532;28;20500;-67
2022/01/25 22:04:45;;;;;;;42.10;22.35;;;;;;;3.12;63.41;101474.22;10468180;28;20055;-67
2022/01/25 22:09:48;;;;;;;41.08;21.20;;;;;;;3.03;63.48;101475.13;10470064;28;20339;-67
2022/01/25 22:14:50;;;;;;;36.33;19.75;;;;;;;3.06;63.71;101474.25;10468604;28;20552;-68
2022/01/25 22:19:52;;;;;;;44.78;20.85;;;;;;;3.08;63.68;101472.53;10469163;28;20052;-68
2022/01/25 22:24:53;;;;;;;42.45;20.60;;;;;;;3.05;63.45;101472.53;10469589;28;20085;-68
2022/01/25 22:29:55;;;;;;;46.88;20.38;;;;;;;3.00;63.65;101464.81;10467545;28;20105;-68
2022/01/25 22:34:57;;;;;;;42.17;21.63;;;;;;;2.98;64.58;101458.81;10471245;28;20056;-67
2022/01/25 22:40:00;;;;;;;43.85;21.20;;;;;;;2.98;64.19;101463.97;10473979;28;20131;-68
2022/01/25 22:45:03;;;;;;;48.33;21.73;;;;;;;2.92;64.18;101464.00;10467739;28;20059;-68
2022/01/25 22:50:09;;;;;;;45.15;21.27;;;;;;;2.92;64.55;101463.13;10467488;28;20051;-68
2022/01/25 22:55:13;;;;;;;43.30;21.42;;;;;;;2.79;64.83;101467.47;10467466;28;20056;-68
2022/01/25 23:00:39;;;;;;;48.65;20.50;;;;;;;2.70;65.05;101459.75;10466277;28;20051;-68
2022/01/25 23:05:45;;;;;;;43.03;20.73;;;;;;;2.67;65.09;101464.94;10459418;28;20064;-68
2022/01/25 23:10:47;;;;;;;44.03;21.00;;;;;;;2.63;65.28;101458.06;10467404;28;20051;-68
2022/01/25 23:15:51;;;;;;;40.13;19.00;;;;;;;2.58;65.22;101459.78;10468757;28;20048;-68
2022/01/25 23:20:56;;;;;;;38.17;17.92;;;;;;;2.47;65.54;101465.88;10466901;28;20056;-68
2022/01/25 23:26:06;;;;;;;39.33;16.85;;;;;;;2.43;65.60;101465.03;10474833;28;20102;-68
2022/01/25 23:31:17;;;;;;;35.25;17.45;;;;;;;2.50;65.56;101468.47;10484512;28;20052;-68
2022/01/25 23:36:30;;;;;;;37.92;16.02;;;;;;;2.41;65.57;101464.16;10475040;28;20052;-68
2022/01/25 23:41:37;;;;;;;34.58;15.70;;;;;;;2.37;65.52;101464.16;10474385;28;20087;-68
2022/01/25 23:46:44;;;;;;;33.05;16.17;;;;;;;2.26;66.13;101459.03;10471886;28;20036;-68
2022/01/25 23:54:02;;;;;;;36.25;15.57;;;;;;;2.34;65.77;101466.78;10475621;28;20083;-68
